createdAt,value
2018-09-17T00:00:05.838Z,83.30
2018-09-17T00:05:35.249Z,83.70
2018-09-17T00:11:04.724Z,83.90
2018-09-17T00:16:34.019Z,84.20
2018-09-17T00:22:04.399Z,84.60
2018-09-17T00:27:33.672Z,85.00
2018-09-17T00:33:02.927Z,85.20
2018-09-17T00:38:32.244Z,85.50
2018-09-17T00:44:01.523Z,85.70
2018-09-17T00:49:30.787Z,85.90
2018-09-17T00:55:00.094Z,86.10
2018-09-17T01:00:29.378Z,86.60
2018-09-17T01:05:58.703Z,86.60
2018-09-17T01:11:27.988Z,86.90
2018-09-17T01:16:57.235Z,87.00
2018-09-17T01:22:26.490Z,87.20
2018-09-17T01:27:55.752Z,87.20
2018-09-17T01:33:25.035Z,87.60
2018-09-17T01:38:57.194Z,87.60
2018-09-17T01:44:26.497Z,87.80
2018-09-17T01:49:55.805Z,88.10
2018-09-17T01:55:25.021Z,88.30
2018-09-17T02:00:54.360Z,89.00
2018-09-17T02:06:23.715Z,88.30
2018-09-17T02:11:52.924Z,88.50
2018-09-17T02:17:22.156Z,89.20
2018-09-17T02:22:51.427Z,88.60
2018-09-17T02:28:20.620Z,88.70
2018-09-17T02:33:49.879Z,88.80
2018-09-17T02:39:20.772Z,88.80
2018-09-17T02:44:50.109Z,88.80
2018-09-17T02:50:19.335Z,88.80
2018-09-17T02:55:48.782Z,88.70
2018-09-17T03:01:18.151Z,88.90
2018-09-17T03:06:47.371Z,89.00
2018-09-17T03:12:16.656Z,89.00
2018-09-17T03:17:46.519Z,89.10
2018-09-17T03:23:15.907Z,89.10
2018-09-17T03:28:45.316Z,89.30
2018-09-17T03:34:14.642Z,89.20
2018-09-17T03:39:45.822Z,88.80
2018-09-17T03:45:15.156Z,89.30
2018-09-17T03:50:44.395Z,89.30
2018-09-17T03:56:13.689Z,89.50
2018-09-17T04:01:46.452Z,89.40
2018-09-17T04:07:15.734Z,89.30
2018-09-17T04:12:45.053Z,89.30
2018-09-17T04:18:14.472Z,89.30
2018-09-17T04:23:45.347Z,89.50
2018-09-17T04:29:15.929Z,89.50
2018-09-17T04:34:45.299Z,89.40
2018-09-17T04:40:14.717Z,89.50
2018-09-17T04:45:46.365Z,89.80
2018-09-17T04:51:32.659Z,89.70
2018-09-17T04:57:02.941Z,89.90
2018-09-17T05:02:33.351Z,89.60
2018-09-17T05:08:03.857Z,89.70
2018-09-17T05:13:33.205Z,89.90
2018-09-17T05:19:02.411Z,90.20
2018-09-17T05:24:31.667Z,89.80
2018-09-17T05:30:01.112Z,90.00
2018-09-17T05:35:30.469Z,90.10
2018-09-17T05:40:59.769Z,90.10
2018-09-17T05:46:29.030Z,90.10
2018-09-17T05:51:58.360Z,90.20
2018-09-17T05:57:28.672Z,90.20
2018-09-17T06:02:59.067Z,90.20
2018-09-17T06:08:28.391Z,90.30
2018-09-17T06:13:57.684Z,90.30
2018-09-17T06:19:27.023Z,90.40
2018-09-17T06:24:56.297Z,90.40
2018-09-17T06:30:25.508Z,90.50
2018-09-17T06:35:54.695Z,90.40
2018-09-17T06:41:24.076Z,90.40
2018-09-17T06:46:56.980Z,90.40
2018-09-17T06:52:26.204Z,90.30
2018-09-17T06:57:55.454Z,90.20
2018-09-17T07:03:24.781Z,90.10
2018-09-17T07:08:53.961Z,90.00
2018-09-17T07:14:23.160Z,89.20
2018-09-17T07:19:52.761Z,89.00
2018-09-17T07:25:22.025Z,89.00
2018-09-17T07:30:51.262Z,88.20
2018-09-17T07:36:20.547Z,87.30
2018-09-17T07:41:49.802Z,86.60
2018-09-17T07:47:19.096Z,86.40
2018-09-17T07:52:48.387Z,85.60
2018-09-17T07:58:17.601Z,85.20
2018-09-17T08:03:46.849Z,83.40
2018-09-17T08:09:16.241Z,82.20
2018-09-17T08:14:45.566Z,81.40
2018-09-17T08:20:14.931Z,80.30
2018-09-17T08:25:44.279Z,79.30
2018-09-17T08:31:13.838Z,78.30
2018-09-17T08:36:43.147Z,78.10
2018-09-17T08:42:12.766Z,77.20
2018-09-17T08:47:42.035Z,76.50
2018-09-17T08:53:11.466Z,74.90
2018-09-17T08:58:45.963Z,74.80
2018-09-17T09:04:20.580Z,73.20
2018-09-17T09:09:50.016Z,72.20
2018-09-17T09:15:23.044Z,71.70
2018-09-17T09:20:52.316Z,70.70
2018-09-17T09:26:21.576Z,71.20
2018-09-17T09:31:50.758Z,69.20
2018-09-17T09:37:20.290Z,68.40
2018-09-17T09:42:49.524Z,67.80
2018-09-17T09:48:18.732Z,66.90
2018-09-17T09:53:48.045Z,66.50
2018-09-17T09:59:17.291Z,65.90
2018-09-17T10:04:46.615Z,65.70
2018-09-17T10:10:21.180Z,65.40
2018-09-17T10:15:54.385Z,64.90
2018-09-17T10:21:24.194Z,64.40
2018-09-17T10:26:53.556Z,64.50
2018-09-17T10:32:22.780Z,63.70
2018-09-17T10:37:52.068Z,62.80
2018-09-17T10:43:21.263Z,62.30
2018-09-17T10:48:50.495Z,61.10
2018-09-17T10:54:19.736Z,59.80
2018-09-17T10:59:49.099Z,59.50
2018-09-17T11:05:18.394Z,59.90
2018-09-17T11:10:47.644Z,59.40
2018-09-17T11:16:16.855Z,57.70
2018-09-17T11:21:46.154Z,56.20
2018-09-17T11:27:15.607Z,55.90
2018-09-17T11:32:44.929Z,55.20
2018-09-17T11:38:14.294Z,54.90
2018-09-17T11:43:43.616Z,54.30
2018-09-17T11:49:12.981Z,54.40
2018-09-17T11:54:43.417Z,55.00
2018-09-17T12:00:16.284Z,54.30
2018-09-17T12:05:50.803Z,53.80
2018-09-17T12:11:20.072Z,53.40
2018-09-17T12:16:49.337Z,54.00
2018-09-17T12:22:18.509Z,53.50
2018-09-17T12:27:47.731Z,52.80
2018-09-17T12:33:17.040Z,52.90
2018-09-17T12:38:46.451Z,53.70
2018-09-17T12:44:16.689Z,53.00
2018-09-17T12:49:45.970Z,52.90
2018-09-17T12:55:15.231Z,49.10
2018-09-17T13:00:44.723Z,44.70
2018-09-17T13:06:14.044Z,43.70
2018-09-17T13:11:43.592Z,43.60
2018-09-17T13:17:12.989Z,45.40
2018-09-17T13:22:42.347Z,46.30
2018-09-17T13:28:15.950Z,47.10
2018-09-17T13:33:45.600Z,48.20
2018-09-17T13:39:15.055Z,47.70
2018-09-17T13:44:44.827Z,47.00
2018-09-17T13:50:14.309Z,44.10
2018-09-17T13:55:43.692Z,44.40
2018-09-17T14:01:12.970Z,43.40
2018-09-17T14:06:42.356Z,40.50
2018-09-17T14:12:11.744Z,38.40
2018-09-17T14:17:41.198Z,36.40
2018-09-17T14:23:10.534Z,35.00
2018-09-17T14:28:40.062Z,33.40
2018-09-17T14:34:09.385Z,32.90
2018-09-17T14:39:38.731Z,32.90
2018-09-17T14:45:08.229Z,32.00
2018-09-17T14:50:38.846Z,31.90
2018-09-17T14:56:08.560Z,31.50
2018-09-17T15:01:38.194Z,31.10
2018-09-17T15:07:08.774Z,30.50
2018-09-17T15:12:38.277Z,30.40
2018-09-17T15:18:07.729Z,33.90
2018-09-17T15:23:37.158Z,36.90
2018-09-17T15:29:06.462Z,39.60
2018-09-17T15:34:36.580Z,41.40
2018-09-17T15:40:07.370Z,42.90
2018-09-17T15:45:37.818Z,43.20
2018-09-17T15:51:07.346Z,44.70
2018-09-17T15:56:41.351Z,46.00
2018-09-17T16:02:10.844Z,47.00
2018-09-17T16:07:40.523Z,46.60
2018-09-17T16:13:10.158Z,47.00
2018-09-17T16:18:39.804Z,48.50
2018-09-17T16:24:09.244Z,49.40
2018-09-17T16:29:38.589Z,50.60
2018-09-17T16:35:09.015Z,51.20
2018-09-17T16:40:38.412Z,52.50
2018-09-17T16:46:08.040Z,52.50
2018-09-17T16:51:37.393Z,53.40
2018-09-17T16:57:06.710Z,54.00
2018-09-17T17:02:37.163Z,54.40
2018-09-17T17:08:06.487Z,55.60
2018-09-17T17:13:35.786Z,55.70
2018-09-17T17:19:05.216Z,56.30
2018-09-17T17:24:34.809Z,57.00
2018-09-17T17:30:04.095Z,57.80
2018-09-17T17:35:35.727Z,58.30
2018-09-17T17:41:05.067Z,58.90
2018-09-17T17:46:34.369Z,59.70
2018-09-17T17:52:03.809Z,60.20
2018-09-17T17:58:37.935Z,60.70
2018-09-17T18:04:08.619Z,61.30
2018-09-17T18:09:38.540Z,62.10
2018-09-17T18:15:09.296Z,62.80
2018-09-17T18:20:39.164Z,63.00
2018-09-17T18:26:08.749Z,63.70
2018-09-17T18:31:40.640Z,64.10
2018-09-17T18:37:10.400Z,65.70
2018-09-17T18:42:39.915Z,66.00
2018-09-17T18:48:09.607Z,66.00
2018-09-17T18:53:39.471Z,65.70
2018-09-17T18:59:09.674Z,66.00
2018-09-17T19:04:39.670Z,66.20
2018-09-17T19:10:10.132Z,66.60
2018-09-17T19:15:44.834Z,67.50
2018-09-17T19:21:14.571Z,67.40
2018-09-17T19:26:45.109Z,67.50
2018-09-17T19:32:14.556Z,68.70
2018-09-17T19:37:49.405Z,68.40
2018-09-17T19:43:18.848Z,69.00
2018-09-17T19:48:48.656Z,69.20
2018-09-17T19:54:18.060Z,69.50
2018-09-17T19:59:51.892Z,69.90
2018-09-17T20:05:26.220Z,70.30
2018-09-17T20:11:01.562Z,70.50
2018-09-17T20:16:33.096Z,70.70
2018-09-17T20:22:02.869Z,71.20
2018-09-17T20:27:32.160Z,71.50
2018-09-17T20:33:01.515Z,71.90
2018-09-17T20:38:38.003Z,72.20
2018-09-17T21:06:52.285Z,72.90
2018-09-17T21:12:21.890Z,73.20
2018-09-17T21:17:51.598Z,73.80
2018-09-17T21:23:34.347Z,74.50
2018-09-17T21:29:24.046Z,74.70
2018-09-17T21:34:53.555Z,75.00
2018-09-17T21:40:22.712Z,75.40
2018-09-17T21:45:52.010Z,75.60
2018-09-17T21:51:22.788Z,75.80
2018-09-17T21:56:52.023Z,76.10
2018-09-17T22:02:22.021Z,76.30
2018-09-17T22:07:51.666Z,76.70
2018-09-17T22:13:21.229Z,76.90
2018-09-17T22:18:50.509Z,77.10
2018-09-17T22:24:19.707Z,77.20
2018-09-17T22:29:49.270Z,77.60
2018-09-17T22:35:18.674Z,77.90
2018-09-17T22:40:47.882Z,77.90
2018-09-17T22:46:17.082Z,77.90
2018-09-17T22:51:46.403Z,78.20
2018-09-17T22:57:15.672Z,78.60
2018-09-17T23:02:44.935Z,78.60
2018-09-17T23:08:14.362Z,79.00
2018-09-17T23:13:43.668Z,79.00
2018-09-17T23:19:13.097Z,79.40
2018-09-17T23:24:42.413Z,79.50
2018-09-17T23:30:12.035Z,79.80
2018-09-17T23:35:41.427Z,80.10
2018-09-17T23:41:11.235Z,80.00
2018-09-17T23:46:40.608Z,80.10
2018-09-17T23:52:10.033Z,81.00
2018-09-17T23:57:39.350Z,80.30
